Time;durP1;ratioP1;P1;durP2;ratioP2;P2;SDS_P1;SDS_P2;PMS_P1;PMS_P2;Temp;Humidity;BMP_temperature;BMP_pressure;BME280_temperature;BME280_humidity;BME280_pressure;Samples;Min_cycle;Max_cycle;Signal;HPM_P1;HPM_P2
2023/06/02 00:01:00;;;;;;;10.10;3.85;;;;;;;11.85;75.31;102157.44;4983638;28;20022;-93
2023/06/02 00:03:37;;;;;;;9.55;3.97;;;;;;;11.79;74.27;102157.50;4980987;28;20040;-93
2023/06/02 00:06:09;;;;;;;13.48;3.97;;;;;;;11.79;76.24;102174.81;4999547;28;20034;-92
2023/06/02 00:08:40;;;;;;;10.60;3.97;;;;;;;11.67;74.76;102157.53;5004290;28;20087;-93
2023/06/02 00:11:09;;;;;;;9.25;3.83;;;;;;;11.70;75.65;102160.13;4986792;28;20077;-93
2023/06/02 00:13:37;;;;;;;10.63;3.72;;;;;;;11.70;75.38;102149.72;5002624;28;20152;-94
2023/06/02 00:16:03;;;;;;;10.05;3.72;;;;;;;11.67;76.79;102149.72;5003689;28;20034;-92
2023/06/02 00:18:33;;;;;;;8.02;3.60;;;;;;;11.66;75.68;102149.78;5007143;28;20030;-92
2023/06/02 00:21:09;;;;;;;9.93;3.90;;;;;;;11.66;75.35;102141.97;5006657;28;20057;-93
2023/06/02 00:23:34;;;;;;;8.85;3.63;;;;;;;11.61;76.19;102141.13;4987490;28;20420;-93
2023/06/02 00:26:00;;;;;;;9.65;3.95;;;;;;;11.62;75.80;102138.53;4983302;28;20113;-94
2023/06/02 00:28:26;;;;;;;9.35;4.25;;;;;;;11.60;75.95;102149.81;5005310;28;20089;-90
2023/06/02 00:30:55;;;;;;;11.82;4.22;;;;;;;11.54;75.66;102142.03;5002870;28;20104;-90
2023/06/02 00:33:23;;;;;;;8.30;3.83;;;;;;;11.56;75.55;102151.56;4986155;28;20046;-91
2023/06/02 00:35:49;;;;;;;10.38;4.32;;;;;;;11.51;76.42;102140.34;4983947;28;20034;-91
2023/06/02 00:38:15;;;;;;;9.85;3.88;;;;;;;11.51;74.74;102153.34;5003869;28;20153;-92
2023/06/02 00:40:43;;;;;;;12.05;4.03;;;;;;;11.50;75.94;102146.41;4988533;28;20041;-90
2023/06/02 00:43:12;;;;;;;11.60;3.70;;;;;;;11.48;74.70;102146.41;5003364;28;20088;-91
2023/06/02 00:45:37;;;;;;;12.20;3.88;;;;;;;11.45;72.87;102148.19;5001703;28;20496;-90
2023/06/02 00:48:05;;;;;;;10.07;3.42;;;;;;;11.43;75.16;102142.13;5004011;28;20503;-90
2023/06/02 00:50:34;;;;;;;8.27;3.72;;;;;;;11.51;75.87;102162.84;5005093;28;20459;-91
2023/06/02 00:53:01;;;;;;;11.85;3.67;;;;;;;11.44;75.72;102136.06;4986509;28;20034;-90
2023/06/02 00:55:34;;;;;;;10.63;3.50;;;;;;;11.39;72.79;102138.69;4988804;28;20026;-91
2023/06/02 00:58:07;;;;;;;7.40;3.35;;;;;;;11.35;73.01;102149.97;4984563;28;20026;-92
2023/06/02 01:00:36;;;;;;;11.45;3.85;;;;;;;11.36;74.57;102153.41;4984332;28;20017;-91
2023/06/02 01:03:02;;;;;;;12.60;3.92;;;;;;;11.29;73.73;102149.13;4985381;28;20022;-91
2023/06/02 01:05:29;;;;;;;10.55;4.13;;;;;;;11.26;73.81;102152.59;4998873;28;20053;-91
2023/06/02 01:08:03;;;;;;;13.38;3.58;;;;;;;11.25;73.15;102144.84;4980742;28;20022;-91
2023/06/02 01:10:29;;;;;;;;;;;;;;;11.30;73.84;102156.91;5002157;28;20044;-91
2023/06/02 01:12:56;;;;;;;11.90;3.83;;;;;;;11.22;76.19;102137.06;4998104;28;19917;-91
2023/06/02 01:15:21;;;;;;;11.90;3.80;;;;;;;11.21;75.73;102146.56;4988830;28;20026;-91
2023/06/02 01:17:51;;;;;;;8.95;3.47;;;;;;;11.21;74.42;102143.13;5000399;28;20033;-91
2023/06/02 01:20:23;;;;;;;14.50;3.70;;;;;;;11.23;74.55;102144.84;4999632;28;20606;-91
2023/06/02 01:23:01;;;;;;;9.57;3.28;;;;;;;11.32;75.56;102162.97;4999728;28;20679;-91
2023/06/02 01:25:28;;;;;;;14.88;3.60;;;;;;;11.25;74.31;102142.25;4984650;28;20026;-92
2023/06/02 01:27:57;;;;;;;10.38;3.40;;;;;;;11.32;75.30;102151.72;4986407;28;20068;-91
2023/06/02 01:30:24;;;;;;;8.13;3.63;;;;;;;11.27;75.90;102143.94;5003111;28;20026;-92
2023/06/02 01:32:56;;;;;;;11.18;3.60;;;;;;;11.33;76.04;102143.91;5001456;28;20085;-92
2023/06/02 01:35:27;;;;;;;10.52;3.70;;;;;;;11.28;74.33;102137.88;5004769;28;20029;-92
2023/06/02 01:37:56;;;;;;;9.93;3.55;;;;;;;11.32;75.66;102146.53;4987948;28;20490;-93
2023/06/02 01:40:24;;;;;;;10.52;3.60;;;;;;;11.30;75.02;102141.34;5002591;28;20049;-93
2023/06/02 01:42:52;;;;;;;11.77;4.10;;;;;;;11.24;75.38;102136.19;5003805;28;20018;-92
2023/06/02 01:45:19;;;;;;;11.82;3.60;;;;;;;11.23;76.03;102125.81;4984776;28;20017;-92
2023/06/02 01:47:47;;;;;;;10.63;3.80;;;;;;;11.31;75.98;102143.06;5000905;28;20040;-92
2023/06/02 01:50:13;;;;;;;10.40;3.42;;;;;;;11.36;75.98;102143.91;5003532;28;20036;-93
2023/06/02 01:52:38;;;;;;;11.50;3.67;;;;;;;11.34;75.68;102137.84;5001941;28;20026;-92
2023/06/02 01:55:04;;;;;;;12.95;3.83;;;;;;;11.35;75.76;102130.91;5003453;28;20152;-93
2023/06/02 01:57:30;;;;;;;11.30;4.00;;;;;;;11.39;77.25;102127.44;4985945;28;20479;-92
2023/06/02 01:59:55;;;;;;;12.95;3.60;;;;;;;11.36;75.37;102125.72;4987466;28;20022;-93
2023/06/02 02:02:21;;;;;;;11.40;3.45;;;;;;;11.42;76.56;102133.47;5002160;28;20108;-92
2023/06/02 02:04:46;;;;;;;14.13;3.67;;;;;;;11.43;75.93;102140.41;5004237;28;20045;-92
2023/06/02 02:07:12;;;;;;;11.82;4.00;;;;;;;11.45;74.58;102145.59;5003203;28;20038;-93
2023/06/02 02:09:38;;;;;;;11.20;4.03;;;;;;;11.34;74.32;102134.38;5006305;28;20034;-93
2023/06/02 02:12:05;;;;;;;13.45;4.15;;;;;;;11.33;77.14;102128.31;5018822;28;20048;-92
2023/06/02 02:14:33;;;;;;;10.05;3.30;;;;;;;11.32;75.58;102133.56;4989551;28;20048;-92
2023/06/02 02:17:00;;;;;;;10.02;4.03;;;;;;;11.34;76.93;102132.66;5003260;28;20040;-93
2023/06/02 02:19:31;;;;;;;12.02;3.90;;;;;;;11.33;76.09;102141.31;4986349;28;20041;-93
2023/06/02 02:21:59;;;;;;;8.88;3.60;;;;;;;11.32;76.38;102144.81;5001674;28;20558;-93
2023/06/02 02:24:25;;;;;;;8.45;3.65;;;;;;;11.40;78.06;102142.13;4988687;28;20030;-91
2023/06/02 02:26:51;;;;;;;12.50;3.92;;;;;;;11.33;77.36;102136.13;5001435;28;20108;-92
2023/06/02 02:29:17;;;;;;;11.18;3.80;;;;;;;11.37;77.30;102135.25;5003065;28;20026;-93
2023/06/02 02:31:42;;;;;;;9.15;3.80;;;;;;;11.35;77.25;102117.94;5002999;28;20029;-91
2023/06/02 02:34:08;;;;;;;13.40;4.47;;;;;;;11.36;77.87;102123.13;4985299;28;20649;-93
2023/06/02 02:36:33;;;;;;;11.82;4.20;;;;;;;11.41;77.82;102130.88;4983386;28;20037;-92
2023/06/02 02:39:03;;;;;;;7.80;3.53;;;;;;;11.40;78.47;102129.16;4984364;28;20030;-92
2023/06/02 02:41:28;;;;;;;12.65;3.72;;;;;;;11.41;78.02;102128.28;5002620;28;20129;-91
2023/06/02 02:43:54;;;;;;;10.60;4.05;;;;;;;11.47;76.88;102138.63;5000407;28;20111;-92
2023/06/02 02:46:22;;;;;;;13.95;4.07;;;;;;;11.40;76.39;102130.00;5002461;28;20088;-92
2023/06/02 02:48:50;;;;;;;11.07;4.30;;;;;;;11.47;78.29;102136.88;5000389;28;20022;-92
2023/06/02 02:51:16;;;;;;;9.43;4.00;;;;;;;11.41;76.04;102136.06;5002706;28;20455;-92
2023/06/02 02:53:41;;;;;;;12.45;4.68;;;;;;;11.44;76.74;102133.47;4980633;28;20490;-92
2023/06/02 02:56:07;;;;;;;11.98;4.57;;;;;;;11.46;78.16;102140.34;4999004;28;20166;-93
2023/06/02 02:58:36;;;;;;;9.63;4.00;;;;;;;11.41;78.24;102129.16;4987257;28;20076;-92
2023/06/02 03:01:05;;;;;;;12.48;4.45;;;;;;;11.44;77.41;102138.66;4985076;28;20030;-92
2023/06/02 03:03:32;;;;;;;16.55;4.03;;;;;;;11.40;77.45;102131.75;5001081;28;20250;-92
2023/06/02 03:05:57;;;;;;;12.15;4.70;;;;;;;11.40;76.72;102142.13;4984802;28;20073;-92
2023/06/02 03:08:22;;;;;;;14.18;4.80;;;;;;;11.31;77.57;102124.91;4982408;28;20034;-92
2023/06/02 03:10:48;;;;;;;10.55;4.15;;;;;;;11.29;75.68;102129.22;4996062;28;20033;-92
2023/06/02 03:13:14;;;;;;;14.25;4.47;;;;;;;11.29;74.89;102138.75;5000221;28;20030;-92
2023/06/02 03:15:42;;;;;;;12.60;4.20;;;;;;;11.24;75.11;102145.72;5001030;28;20029;-92
2023/06/02 03:18:11;;;;;;;12.80;4.13;;;;;;;11.15;74.67;102146.59;4982242;28;20440;-93
2023/06/02 03:20:36;;;;;;;11.68;4.68;;;;;;;11.12;75.34;102148.38;5000508;28;20022;-92
2023/06/02 03:23:05;;;;;;;13.48;4.20;;;;;;;11.12;75.66;102151.84;4982623;28;20117;-92
2023/06/02 03:25:34;;;;;;;14.20;4.15;;;;;;;11.13;76.41;102150.94;5002022;28;20026;-93
2023/06/02 03:27:59;;;;;;;13.00;4.45;;;;;;;11.13;76.96;102148.34;5001020;28;20041;-92
2023/06/02 03:30:24;;;;;;;13.27;4.03;;;;;;;11.13;76.56;102148.34;4997869;28;20042;-92
2023/06/02 03:32:50;;;;;;;11.75;3.90;;;;;;;11.09;76.24;102144.91;4986795;28;20033;-92
2023/06/02 03:35:16;;;;;;;15.13;4.07;;;;;;;11.05;75.08;102145.78;4981337;28;20044;-93
2023/06/02 03:37:42;;;;;;;12.43;4.57;;;;;;;11.13;74.72;102150.06;5000421;28;20026;-91
2023/06/02 03:40:08;;;;;;;12.27;4.15;;;;;;;11.08;76.73;102148.38;5001098;28;20389;-94
2023/06/02 03:42:37;;;;;;;13.65;4.30;;;;;;;11.06;75.60;102152.69;4985022;28;20024;-93
2023/06/02 03:45:03;;;;;;;12.05;4.45;;;;;;;11.03;74.51;102152.72;4983664;28;20094;-94
2023/06/02 03:47:28;;;;;;;13.13;4.85;;;;;;;11.00;76.54;102144.09;4990660;28;20089;-93
2023/06/02 03:49:54;;;;;;;16.40;4.63;;;;;;;10.97;74.93;102150.16;4984636;28;20291;-92
2023/06/02 03:52:19;;;;;;;15.82;4.50;;;;;;;10.97;74.45;102154.50;4998964;28;20080;-91
2023/06/02 03:54:49;;;;;;;12.13;4.25;;;;;;;10.94;76.66;102152.75;5000706;28;20482;-92
2023/06/02 03:57:15;;;;;;;9.95;4.32;;;;;;;10.97;75.94;102157.94;4999396;28;20494;-94
2023/06/02 03:59:43;;;;;;;10.07;4.15;;;;;;;10.93;76.08;102144.97;4985340;28;20025;-92
2023/06/02 04:02:12;;;;;;;11.55;4.45;;;;;;;10.95;75.01;102154.50;5001006;28;20065;-93
2023/06/02 04:04:45;;;;;;;13.32;3.90;;;;;;;11.00;74.84;102164.84;5000168;28;20064;-92
2023/06/02 04:07:11;;;;;;;13.60;4.53;;;;;;;10.91;75.15;102157.97;5000944;28;20038;-93
2023/06/02 04:09:36;;;;;;;12.40;4.30;;;;;;;10.95;74.79;102166.59;4983565;28;20022;-92
2023/06/02 04:12:02;;;;;;;14.68;4.57;;;;;;;10.91;76.33;102170.94;5001053;28;20678;-92
2023/06/02 04:14:27;;;;;;;10.25;3.80;;;;;;;10.90;76.58;102173.53;5001067;28;20056;-93
2023/06/02 04:16:54;;;;;;;9.82;3.95;;;;;;;10.86;76.02;102171.81;4987119;28;20025;-92
2023/06/02 04:19:19;;;;;;;15.40;4.30;;;;;;;10.92;75.00;102185.63;4983736;28;20030;-92
2023/06/02 04:21:45;;;;;;;11.57;3.90;;;;;;;10.83;74.78;102167.50;4987182;28;20033;-93
2023/06/02 04:24:11;;;;;;;10.70;3.70;;;;;;;10.84;76.36;102177.03;5002484;28;20718;-92
2023/06/02 04:26:39;;;;;;;12.52;3.35;;;;;;;10.80;74.96;102169.25;5000214;28;20068;-93
2023/06/02 04:29:10;;;;;;;8.75;3.42;;;;;;;10.83;76.74;102177.03;4999907;28;20442;-92
2023/06/02 04:31:47;;;;;;;10.15;3.53;;;;;;;10.89;77.16;102171.81;4983814;28;20095;-92
2023/06/02 04:34:12;;;;;;;12.30;3.70;;;;;;;10.87;76.59;102177.00;5000290;28;20084;-92
2023/06/02 04:36:39;;;;;;;9.52;3.20;;;;;;;10.88;76.46;102160.56;4998509;28;20025;-92
2023/06/02 04:39:08;;;;;;;8.32;3.10;;;;;;;10.84;74.84;102165.78;4978086;28;20115;-93
2023/06/02 04:41:36;;;;;;;7.45;2.95;;;;;;;10.86;74.51;102171.81;5004270;28;20529;-93
2023/06/02 04:44:03;;;;;;;11.65;2.90;;;;;;;10.84;75.56;102168.38;4982819;28;20040;-91
2023/06/02 04:46:32;;;;;;;8.98;2.80;;;;;;;10.78;73.77;102158.03;4983395;28;20032;-93
2023/06/02 04:49:08;;;;;;;10.80;3.20;;;;;;;10.78;76.37;102163.22;5001601;28;20030;-91
2023/06/02 04:51:37;;;;;;;9.15;3.13;;;;;;;10.79;74.48;102162.31;4981819;28;20640;-90
2023/06/02 04:54:03;;;;;;;10.02;2.75;;;;;;;10.78;75.40;102169.25;4999526;28;20026;-90
2023/06/02 04:56:30;;;;;;;7.93;2.50;;;;;;;10.81;76.09;102160.59;4984255;28;20026;-92
2023/06/02 04:58:56;;;;;;;9.95;2.85;;;;;;;10.79;74.21;102170.97;5003188;28;20121;-90
2023/06/02 05:01:24;;;;;;;9.20;2.55;;;;;;;10.80;73.16;102175.28;5005595;28;20037;-90
2023/06/02 05:03:53;;;;;;;9.95;2.80;;;;;;;10.86;76.00;102188.25;5014033;28;20006;-91
2023/06/02 05:06:18;;;;;;;10.57;2.95;;;;;;;10.79;74.40;102172.69;4998519;28;20117;-90
2023/06/02 05:08:46;;;;;;;10.88;2.88;;;;;;;10.80;74.91;102183.06;4986356;28;20117;-90
2023/06/02 05:11:12;;;;;;;10.73;3.00;;;;;;;10.85;77.45;102188.28;4981717;28;20073;-91
2023/06/02 05:13:37;;;;;;;13.98;3.20;;;;;;;10.79;75.73;102186.53;5002991;28;20030;-91
2023/06/02 05:16:05;;;;;;;9.75;3.33;;;;;;;10.81;76.73;102191.72;4981103;28;20399;-90
2023/06/02 05:18:33;;;;;;;9.05;2.97;;;;;;;10.85;74.68;102199.47;4999442;28;20061;-90
2023/06/02 05:20:59;;;;;;;11.40;3.05;;;;;;;10.82;73.20;102186.53;5002478;28;20070;-90
2023/06/02 05:23:24;;;;;;;11.02;3.10;;;;;;;10.76;73.63;102183.09;5000117;28;20057;-90
2023/06/02 05:25:51;;;;;;;10.23;2.97;;;;;;;10.80;75.33;102177.03;4982280;28;20033;-91
2023/06/02 05:28:19;;;;;;;12.98;3.05;;;;;;;10.80;73.83;102182.22;4999606;28;20029;-91
2023/06/02 05:30:47;;;;;;;10.50;2.83;;;;;;;10.78;73.04;102176.19;4999435;28;20234;-90
2023/06/02 05:33:16;;;;;;;8.82;2.83;;;;;;;10.83;73.68;102192.59;4999875;28;20042;-90
2023/06/02 05:35:41;;;;;;;9.48;3.05;;;;;;;10.82;75.24;102188.25;5001920;28;21292;-90
2023/06/02 05:38:07;;;;;;;8.35;2.63;;;;;;;10.86;77.38;102188.25;4999204;28;20505;-90
2023/06/02 05:40:35;;;;;;;8.02;2.60;;;;;;;10.89;74.77;102187.38;5002345;28;20041;-90
2023/06/02 05:43:01;;;;;;;9.77;2.97;;;;;;;10.97;77.51;102196.88;5000504;28;20037;-91
2023/06/02 05:45:26;;;;;;;13.15;3.45;;;;;;;10.92;73.77;102184.75;4998658;28;20033;-91
2023/06/02 05:47:52;;;;;;;14.30;3.13;;;;;;;10.99;76.05;102189.91;5001114;28;20107;-91
2023/06/02 05:50:23;;;;;;;9.05;2.95;;;;;;;10.97;73.07;102199.47;4985417;28;20026;-93
2023/06/02 05:52:50;;;;;;;11.90;3.50;;;;;;;10.94;74.97;102189.09;4984691;28;20042;-92
2023/06/02 05:55:18;;;;;;;7.03;2.60;;;;;;;10.96;75.09;102189.09;4984863;28;20033;-94
2023/06/02 05:57:46;;;;;;;11.40;2.97;;;;;;;11.00;76.91;102196.84;5004017;28;20022;-93
2023/06/02 06:00:12;;;;;;;9.20;2.78;;;;;;;10.99;75.53;102195.09;5001516;28;20383;-94
2023/06/02 06:02:45;;;;;;;10.98;3.20;;;;;;;11.06;74.86;102199.41;4985918;28;20542;-93
2023/06/02 06:05:10;;;;;;;11.50;2.90;;;;;;;11.01;73.41;102193.38;5002623;28;20038;-92
2023/06/02 06:07:36;;;;;;;10.90;3.03;;;;;;;10.98;73.51;102193.41;5003448;28;20036;-93
2023/06/02 06:10:07;;;;;;;11.02;2.42;;;;;;;11.02;74.12;102192.50;4986571;28;20572;-92
2023/06/02 06:12:32;;;;;;;10.98;3.10;;;;;;;11.11;75.48;102193.34;4991279;28;20069;-92
2023/06/02 06:14:57;;;;;;;13.52;3.10;;;;;;;11.15;75.89;102189.88;4986849;28;20117;-93
2023/06/02 06:17:25;;;;;;;10.93;2.67;;;;;;;11.20;74.36;102191.56;5004215;28;20036;-93
2023/06/02 06:19:51;;;;;;;15.15;2.90;;;;;;;11.22;74.73;102194.16;4987490;28;20049;-94
2023/06/02 06:22:16;;;;;;;12.55;2.97;;;;;;;11.19;73.67;102189.00;5001226;28;20112;-94
2023/06/02 06:24:42;;;;;;;8.57;3.00;;;;;;;11.30;76.41;102195.84;4988034;28;20649;-92
2023/06/02 06:27:07;;;;;;;9.05;2.78;;;;;;;11.33;77.07;102187.16;4984355;28;20071;-92
2023/06/02 06:29:33;;;;;;;9.50;3.00;;;;;;;11.36;74.65;102197.56;4983510;28;20034;-92
2023/06/02 06:31:59;;;;;;;10.60;3.05;;;;;;;11.42;75.83;102200.97;4984077;28;20088;-92
2023/06/02 06:34:25;;;;;;;11.63;3.22;;;;;;;11.41;71.48;102208.75;4983619;28;20038;-94
2023/06/02 06:36:53;;;;;;;8.63;2.70;;;;;;;11.32;70.67;102196.72;4989677;28;20022;-93
2023/06/02 06:39:19;;;;;;;9.75;2.60;;;;;;;11.41;75.90;102209.63;5001845;28;20026;-93
2023/06/02 06:41:44;;;;;;;14.45;3.20;;;;;;;11.46;73.71;102201.84;5001392;28;20030;-94
2023/06/02 06:44:12;;;;;;;10.10;3.17;;;;;;;11.49;73.34;102201.81;4989874;28;20557;-93
2023/06/02 06:46:37;;;;;;;11.32;3.28;;;;;;;11.57;72.95;102204.34;5000870;28;20033;-95
2023/06/02 06:49:10;;;;;;;12.00;2.80;;;;;;;11.61;70.51;102196.53;4983608;28;20510;-92
2023/06/02 06:51:36;;;;;;;9.82;2.58;;;;;;;11.76;74.11;102206.84;4984235;28;20046;-93
2023/06/02 06:54:04;;;;;;;12.18;2.70;;;;;;;11.79;71.33;102204.25;5000953;28;20068;-94
2023/06/02 06:56:29;;;;;;;6.72;2.30;;;;;;;11.73;72.00;102196.47;5000147;28;20080;-93
2023/06/02 06:58:57;;;;;;;11.23;3.00;;;;;;;11.78;73.04;102197.31;5001796;28;20034;-93
2023/06/02 07:01:22;;;;;;;9.18;2.47;;;;;;;11.82;72.20;102188.63;5004004;28;20053;-92
2023/06/02 07:03:50;;;;;;;9.50;2.88;;;;;;;11.84;68.76;102193.81;5002039;28;20053;-93
2023/06/02 07:06:15;;;;;;;11.63;2.53;;;;;;;11.90;72.23;102192.91;4998986;28;20032;-92
2023/06/02 07:08:41;;;;;;;9.38;2.55;;;;;;;12.00;72.46;102194.56;4983852;28;20026;-91
2023/06/02 07:11:07;;;;;;;12.50;2.83;;;;;;;12.03;69.87;102184.13;5003000;28;20027;-94
2023/06/02 07:13:32;;;;;;;9.57;2.50;;;;;;;12.10;68.82;102181.47;4982546;28;20482;-93
2023/06/02 07:16:01;;;;;;;11.45;2.78;;;;;;;12.26;69.70;102193.47;4985966;28;20119;-93
2023/06/02 07:18:26;;;;;;;11.52;2.60;;;;;;;12.47;71.44;102208.03;5000024;28;20029;-92
2023/06/02 07:21:00;;;;;;;9.48;2.50;;;;;;;12.59;70.56;102201.81;5002708;28;20026;-92
2023/06/02 07:23:26;;;;;;;9.15;2.20;;;;;;;12.69;72.00;102205.22;4983458;28;20030;-92
2023/06/02 07:25:51;;;;;;;10.07;2.35;;;;;;;12.68;71.57;102201.75;4988708;28;20041;-91
2023/06/02 07:28:22;;;;;;;9.52;2.65;;;;;;;12.77;73.29;102208.56;4983502;28;20030;-91
2023/06/02 07:30:48;;;;;;;11.55;2.70;;;;;;;12.71;67.29;102199.09;4987703;28;20028;-92
2023/06/02 07:33:16;;;;;;;13.55;2.40;;;;;;;12.72;71.05;102207.75;5001792;28;20164;-92
2023/06/02 07:35:42;;;;;;;11.10;2.85;;;;;;;12.73;65.89;102206.88;5002732;28;20032;-93
2023/06/02 07:38:07;;;;;;;14.27;2.95;;;;;;;12.79;66.89;102209.41;5002019;28;20033;-92
2023/06/02 07:40:35;;;;;;;16.23;2.85;;;;;;;12.85;69.66;102204.13;4986710;28;20114;-94
2023/06/02 07:43:03;;;;;;;11.40;2.90;;;;;;;12.97;71.06;102201.38;4983920;28;20398;-92
2023/06/02 07:45:32;;;;;;;10.38;2.70;;;;;;;13.17;66.89;102202.03;4984102;28;20026;-94
2023/06/02 07:48:04;;;;;;;10.90;2.70;;;;;;;13.40;66.09;102213.03;4999374;28;20034;-92
2023/06/02 07:50:32;;;;;;;10.38;2.42;;;;;;;13.43;64.09;102207.78;4982433;28;20643;-93
2023/06/02 07:53:06;;;;;;;10.48;2.58;;;;;;;13.47;67.45;102194.72;4982246;28;20030;-92
2023/06/02 07:55:34;;;;;;;9.90;2.60;;;;;;;13.44;62.26;102206.88;5001578;28;20105;-93
2023/06/02 07:58:08;;;;;;;14.65;2.65;;;;;;;13.40;65.99;102204.34;4987384;28;20049;-92
2023/06/02 08:00:52;;;;;;;10.25;2.60;;;;;;;13.47;63.78;102215.56;4983408;28;20124;-92
2023/06/02 08:03:17;;;;;;;11.30;2.90;;;;;;;13.44;66.83;102199.06;5001029;28;20022;-92
2023/06/02 08:05:46;;;;;;;10.32;2.67;;;;;;;13.51;64.46;102192.03;4984051;28;20592;-93
2023/06/02 08:08:11;;;;;;;10.65;2.70;;;;;;;13.61;66.83;102200.59;4986864;28;20041;-92
2023/06/02 08:10:37;;;;;;;10.25;2.92;;;;;;;13.67;64.45;102201.38;5004852;28;20085;-93
2023/06/02 08:13:06;;;;;;;11.00;2.70;;;;;;;13.73;68.93;102188.22;5003988;28;20026;-93
2023/06/02 08:15:33;;;;;;;13.30;2.90;;;;;;;14.17;67.22;102199.72;5008370;28;20030;-95
2023/06/02 08:17:59;;;;;;;9.60;2.50;;;;;;;14.61;63.42;102199.81;4992982;28;20303;-93
2023/06/02 08:20:28;;;;;;;9.88;2.78;;;;;;;14.70;59.98;102187.47;4996346;28;20030;-93
2023/06/02 08:22:56;;;;;;;9.75;2.63;;;;;;;14.71;63.88;102191.81;5010485;28;20026;-92
2023/06/02 08:25:27;;;;;;;12.48;2.50;;;;;;;14.68;59.55;102191.84;5001415;28;20029;-92
2023/06/02 08:27:56;;;;;;;7.60;2.55;;;;;;;14.68;60.61;102197.06;5000533;28;20033;-91
2023/06/02 08:30:24;;;;;;;14.80;2.90;;;;;;;14.72;64.94;102194.41;5001388;28;20402;-93
2023/06/02 08:32:52;;;;;;;13.27;2.90;;;;;;;14.77;62.53;102197.78;5001401;28;20053;-93
2023/06/02 08:35:18;;;;;;;11.52;2.78;;;;;;;14.75;62.01;102198.69;4985467;28;20137;-93
2023/06/02 08:37:43;;;;;;;8.43;2.70;;;;;;;14.75;63.02;102206.50;4991633;28;20125;-92
2023/06/02 08:40:15;;;;;;;10.77;2.67;;;;;;;14.84;59.54;102207.19;5010125;28;20479;-94
2023/06/02 08:42:41;;;;;;;10.38;2.60;;;;;;;15.25;62.71;102203.75;5007361;28;20026;-93
2023/06/02 08:45:06;;;;;;;13.45;2.75;;;;;;;15.40;63.04;102186.88;5008049;28;20032;-93
2023/06/02 08:47:36;;;;;;;8.55;2.90;;;;;;;15.67;60.39;102203.72;5006896;28;20038;-95
2023/06/02 08:50:05;;;;;;;14.00;2.75;;;;;;;15.63;55.21;102194.22;5004662;28;20052;-93
2023/06/02 08:52:31;;;;;;;7.32;2.65;;;;;;;15.76;57.69;102186.06;5006028;28;20122;-94
2023/06/02 08:55:03;;;;;;;10.13;2.58;;;;;;;15.92;57.78;102190.94;4992073;28;20088;-93
2023/06/02 08:57:29;;;;;;;12.65;2.80;;;;;;;15.80;55.35;102200.78;5006894;28;20026;-94
2023/06/02 08:59:55;;;;;;;13.30;2.78;;;;;;;15.60;58.00;102196.91;5008932;28;20049;-93
2023/06/02 09:02:23;;;;;;;11.18;3.08;;;;;;;15.58;57.04;102201.31;4991251;28;20120;-93
2023/06/02 09:04:49;;;;;;;14.23;2.97;;;;;;;15.46;58.55;102184.13;4994203;28;20030;-93
2023/06/02 09:07:15;;;;;;;14.57;3.35;;;;;;;15.43;57.04;102197.25;4989677;28;20020;-94
2023/06/02 09:09:47;;;;;;;14.05;3.10;;;;;;;15.70;61.76;102191.44;4985705;28;20451;-91
2023/06/02 09:12:17;;;;;;;10.88;2.75;;;;;;;15.94;56.17;102182.16;5002580;28;20129;-92
2023/06/02 09:14:47;;;;;;;12.15;3.38;;;;;;;15.91;55.81;102189.19;4987446;28;20029;-91
2023/06/02 09:17:30;;;;;;;10.82;2.92;;;;;;;15.81;58.54;102185.97;5006336;28;20100;-92
2023/06/02 09:19:57;;;;;;;10.40;3.00;;;;;;;15.67;56.44;102193.28;4985553;28;20376;-93
2023/06/02 09:22:23;;;;;;;9.77;2.78;;;;;;;15.61;58.44;102182.97;5000441;28;20112;-90
2023/06/02 09:24:50;;;;;;;10.82;3.20;;;;;;;15.78;57.38;102186.88;4982472;28;20140;-91
2023/06/02 09:27:16;;;;;;;13.77;3.05;;;;;;;15.84;56.67;102185.00;4985067;28;20030;-91
2023/06/02 09:29:43;;;;;;;7.90;2.88;;;;;;;15.80;59.17;102182.50;5003138;28;20048;-92
2023/06/02 09:32:16;;;;;;;7.25;2.88;;;;;;;16.20;58.73;102184.13;4988170;28;20030;-92
2023/06/02 09:34:45;;;;;;;9.33;3.00;;;;;;;16.23;58.80;102176.19;5001221;28;20058;-92
2023/06/02 09:37:13;;;;;;;12.98;3.67;;;;;;;16.15;58.43;102170.31;5002304;28;20064;-93
2023/06/02 09:39:43;;;;;;;9.60;2.90;;;;;;;16.14;58.24;102179.03;4988729;28;20030;-92
2023/06/02 09:42:13;;;;;;;11.90;3.58;;;;;;;16.13;58.10;102187.78;4987138;28;20105;-92
2023/06/02 09:44:39;;;;;;;13.57;3.50;;;;;;;16.27;57.38;102171.72;4994440;28;20126;-92
2023/06/02 09:47:22;;;;;;;13.13;3.45;;;;;;;16.57;59.19;102173.53;5006597;28;20109;-92
2023/06/02 09:49:48;;;;;;;14.48;3.72;;;;;;;16.76;59.18;102184.41;4988470;28;20030;-92
2023/06/02 09:52:23;;;;;;;8.98;3.22;;;;;;;16.83;55.95;102183.31;4993163;28;20228;-91
2023/06/02 09:54:57;;;;;;;15.02;3.03;;;;;;;16.72;54.77;102182.78;4988693;28;20033;-92
2023/06/02 09:57:23;;;;;;;10.98;3.28;;;;;;;16.43;57.30;102170.44;5005744;28;20025;-92
2023/06/02 09:59:49;;;;;;;8.77;3.30;;;;;;;16.36;61.09;102180.22;5004037;28;20025;-92
2023/06/02 10:02:22;;;;;;;10.93;3.53;;;;;;;16.24;60.13;102180.50;4986421;28;20402;-92
2023/06/02 10:04:47;;;;;;;11.43;3.63;;;;;;;16.18;59.15;102181.53;4986717;28;20033;-93
2023/06/02 10:07:22;;;;;;;26.35;4.65;;;;;;;16.39;60.53;102185.34;4985657;28;20038;-93
2023/06/02 10:10:18;;;;;;;10.63;3.53;;;;;;;16.60;57.82;102186.56;5004320;28;20042;-91
2023/06/02 10:13:03;;;;;;;7.47;3.20;;;;;;;16.47;57.63;102174.69;4991072;28;20030;-92
2023/06/02 10:16:04;;;;;;;9.88;3.58;;;;;;;16.36;59.02;102172.38;5003058;28;20071;-92
2023/06/02 10:18:47;;;;;;;10.57;3.22;;;;;;;16.29;58.20;102181.28;4987781;28;20061;-90
2023/06/02 10:21:46;;;;;;;12.00;3.40;;;;;;;16.37;60.60;102181.94;5003771;28;20080;-91
2023/06/02 10:24:54;;;;;;;11.38;3.67;;;;;;;16.42;58.34;102185.28;5005901;28;20093;-92
2023/06/02 10:27:36;;;;;;;11.18;3.88;;;;;;;16.33;60.32;102175.03;4989825;28;20046;-91
2023/06/02 10:30:02;;;;;;;12.23;3.78;;;;;;;16.31;58.78;102161.13;5002230;28;20117;-93
2023/06/02 10:32:33;;;;;;;13.48;4.15;;;;;;;16.32;59.62;102168.09;4985210;28;20026;-92
2023/06/02 10:35:05;;;;;;;10.13;4.03;;;;;;;16.50;60.07;102175.47;5001329;28;20085;-91
2023/06/02 10:37:34;;;;;;;14.50;3.97;;;;;;;16.71;58.70;102167.97;5000235;28;20046;-92
2023/06/02 10:40:04;;;;;;;10.57;3.65;;;;;;;16.92;59.25;102175.22;4984834;28;20034;-92
2023/06/02 10:42:31;;;;;;;11.07;3.80;;;;;;;17.06;59.20;102170.41;5002805;28;20032;-93
2023/06/02 10:45:47;;;;;;;13.50;3.80;;;;;;;17.11;58.00;102180.78;4985959;28;20036;-93
2023/06/02 10:52:05;;;;;;;13.80;3.92;;;;;;;17.14;59.87;102176.28;4928851;29;20068;-92
2023/06/02 10:54:31;;;;;;;12.63;3.35;;;;;;;17.13;60.36;102169.31;4980676;28;20781;-91
2023/06/02 10:56:59;;;;;;;11.15;3.45;;;;;;;17.17;59.73;102165.72;4990997;28;20518;-92
2023/06/02 10:59:34;;;;;;;11.63;3.80;;;;;;;17.33;59.38;102172.19;5002374;28;20030;-92
2023/06/02 11:02:02;;;;;;;14.07;4.18;;;;;;;17.26;58.01;102169.84;4986043;28;20414;-93
2023/06/02 11:04:44;;;;;;;10.00;4.20;;;;;;;17.18;55.76;102171.84;4990732;28;20028;-93
2023/06/02 11:07:23;;;;;;;10.65;4.15;;;;;;;17.18;57.39;102180.56;5005898;28;20022;-92
2023/06/02 11:10:04;;;;;;;10.93;3.75;;;;;;;17.28;59.15;102170.63;5005747;28;20036;-93
2023/06/02 11:13:05;;;;;;;10.65;3.95;;;;;;;17.26;60.19;102164.59;4987098;28;20553;-92
2023/06/02 11:15:36;;;;;;;10.80;4.10;;;;;;;17.16;58.99;102171.00;4981493;28;20042;-92
2023/06/02 11:18:20;;;;;;;9.65;4.40;;;;;;;17.24;57.72;102166.41;4999270;28;20026;-93
2023/06/02 11:20:58;;;;;;;15.15;4.20;;;;;;;17.33;60.82;102166.97;5003724;28;20044;-92
2023/06/02 11:23:45;;;;;;;11.93;4.30;;;;;;;17.45;58.65;102168.38;5001468;28;20072;-91
2023/06/02 11:26:18;;;;;;;8.05;4.05;;;;;;;17.36;58.47;102166.88;5001521;28;20044;-92
2023/06/02 11:29:05;;;;;;;15.20;4.88;;;;;;;17.30;59.68;102158.34;5007496;28;20583;-92
2023/06/02 11:31:35;;;;;;;12.32;4.40;;;;;;;17.59;58.97;102165.31;5001862;28;20062;-93